createdAt,value
2018-06-02T00:00:22.784Z,99.99
2018-06-02T00:01:22.767Z,99.99
2018-06-02T00:02:22.700Z,99.99
2018-06-02T00:03:22.702Z,99.99
2018-06-02T00:04:22.624Z,99.99
2018-06-02T00:05:22.585Z,99.99
2018-06-02T00:06:22.571Z,99.99
2018-06-02T00:07:22.522Z,99.99
2018-06-02T00:08:22.528Z,99.99
2018-06-02T00:09:22.512Z,99.99
2018-06-02T00:10:22.463Z,99.99
2018-06-02T00:11:22.449Z,99.99
2018-06-02T00:12:22.330Z,99.99
2018-06-02T00:13:22.287Z,99.99
2018-06-02T00:14:22.316Z,99.99
2018-06-02T00:15:22.245Z,99.99
2018-06-02T00:16:22.188Z,99.99
2018-06-02T00:17:22.147Z,99.99
2018-06-02T00:18:22.106Z,99.99
2018-06-02T00:19:22.096Z,99.99
2018-06-02T00:20:22.028Z,99.99
2018-06-02T00:21:22.004Z,99.99
2018-06-02T00:22:21.962Z,99.99
2018-06-02T00:23:21.944Z,99.99
2018-06-02T00:24:21.903Z,99.99
2018-06-02T00:25:21.840Z,99.99
2018-06-02T00:26:21.832Z,99.99
2018-06-02T00:27:21.772Z,99.99
2018-06-02T00:28:21.816Z,99.99
2018-06-02T00:29:21.721Z,99.99
2018-06-02T00:30:21.672Z,99.99
2018-06-02T00:31:21.616Z,99.99
2018-06-02T00:32:21.671Z,99.99
2018-06-02T00:33:21.584Z,99.99
2018-06-02T00:34:21.552Z,99.99
2018-06-02T00:35:21.467Z,99.99
2018-06-02T00:36:21.436Z,99.99
2018-06-02T00:37:21.389Z,99.99
2018-06-02T00:38:21.389Z,99.99
2018-06-02T00:39:21.317Z,99.99
2018-06-02T00:40:21.355Z,99.99
2018-06-02T00:41:21.267Z,99.99
2018-06-02T00:42:21.223Z,99.99
2018-06-02T00:43:21.167Z,99.99
2018-06-02T00:44:21.139Z,99.99
2018-06-02T00:45:21.119Z,99.99
2018-06-02T00:46:21.077Z,99.99
2018-06-02T00:47:21.050Z,99.99
2018-06-02T00:48:20.971Z,99.99
2018-06-02T00:49:20.949Z,99.99
2018-06-02T00:50:20.934Z,99.99
2018-06-02T00:51:20.928Z,99.99
2018-06-02T00:52:20.834Z,99.99
2018-06-02T00:53:20.791Z,99.99
2018-06-02T00:54:20.745Z,99.99
2018-06-02T00:55:20.753Z,99.99
2018-06-02T00:56:20.716Z,99.99
2018-06-02T00:57:20.650Z,99.99
2018-06-02T00:58:20.614Z,99.99
2018-06-02T00:59:20.573Z,99.99
2018-06-02T01:00:20.555Z,99.99
2018-06-02T01:01:20.512Z,99.99
2018-06-02T01:02:20.534Z,99.99
2018-06-02T01:03:20.417Z,99.99
2018-06-02T01:04:20.446Z,99.99
2018-06-02T01:05:20.365Z,99.99
2018-06-02T01:06:20.327Z,99.99
2018-06-02T01:07:20.291Z,99.99
2018-06-02T01:08:20.242Z,99.99
2018-06-02T01:09:20.188Z,99.99
2018-06-02T01:10:20.185Z,99.99
2018-06-02T01:11:20.147Z,99.99
2018-06-02T01:12:20.124Z,99.99
2018-06-02T01:13:20.063Z,99.99
2018-06-02T01:14:20.005Z,99.99
2018-06-02T01:15:19.960Z,99.99
2018-06-02T01:16:19.961Z,99.99
2018-06-02T01:17:19.885Z,99.99
2018-06-02T01:18:19.906Z,99.99
2018-06-02T01:19:19.834Z,99.99
2018-06-02T01:20:19.788Z,99.99
2018-06-02T01:21:19.767Z,99.99
2018-06-02T01:22:19.762Z,99.99
2018-06-02T01:23:19.681Z,99.99
2018-06-02T01:24:19.625Z,99.99
2018-06-02T01:25:19.681Z,99.99
2018-06-02T01:26:19.543Z,99.99
2018-06-02T01:27:19.524Z,99.99
2018-06-02T01:28:29.695Z,99.99
2018-06-02T01:29:19.436Z,99.99
2018-06-02T01:30:19.403Z,99.99
2018-06-02T01:31:19.420Z,99.99
2018-06-02T01:32:19.345Z,99.99
2018-06-02T01:33:21.171Z,99.99
2018-06-02T01:34:19.268Z,99.99
2018-06-02T01:35:19.202Z,99.99
2018-06-02T01:36:19.234Z,99.99
2018-06-02T01:37:19.145Z,99.99
2018-06-02T01:38:19.105Z,99.99
2018-06-02T01:39:19.056Z,99.99
2018-06-02T01:40:19.023Z,99.99
2018-06-02T01:41:18.995Z,99.99
2018-06-02T01:42:18.977Z,99.99
2018-06-02T01:43:18.909Z,99.99
2018-06-02T01:44:18.865Z,99.99
2018-06-02T01:45:18.831Z,99.99
2018-06-02T01:46:18.784Z,99.99
2018-06-02T01:47:18.796Z,99.99
2018-06-02T01:48:18.711Z,99.99
2018-06-02T01:49:18.673Z,99.99
2018-06-02T01:50:18.648Z,99.99
2018-06-02T01:51:28.710Z,99.99
2018-06-02T01:52:18.568Z,99.99
2018-06-02T01:53:18.573Z,99.99
2018-06-02T01:54:18.485Z,99.99
2018-06-02T01:55:18.437Z,99.99
2018-06-02T01:56:18.410Z,99.99
2018-06-02T01:57:18.388Z,99.99
2018-06-02T01:58:18.332Z,99.99
2018-06-02T01:59:18.301Z,99.99
2018-06-02T02:00:18.262Z,99.99
2018-06-02T02:01:18.227Z,99.99
2018-06-02T02:02:18.286Z,99.99
2018-06-02T02:03:18.224Z,99.99
2018-06-02T02:04:18.112Z,99.99
2018-06-02T02:05:18.139Z,99.99
2018-06-02T02:06:18.053Z,99.99
2018-06-02T02:07:17.997Z,99.99
2018-06-02T02:08:18.000Z,99.99
2018-06-02T02:09:17.938Z,99.99
2018-06-02T02:10:17.982Z,99.99
2018-06-02T02:11:17.855Z,99.99
2018-06-02T02:12:17.819Z,99.99
2018-06-02T02:13:17.949Z,99.99
2018-06-02T02:14:17.725Z,99.99
2018-06-02T02:15:28.223Z,99.99
2018-06-02T02:16:17.654Z,99.99
2018-06-02T02:17:17.622Z,99.99
2018-06-02T02:18:17.569Z,99.99
2018-06-02T02:19:17.556Z,99.99
2018-06-02T02:20:17.521Z,99.99
2018-06-02T02:21:17.515Z,99.99
2018-06-02T02:22:17.485Z,99.99
2018-06-02T02:23:17.416Z,99.99
2018-06-02T02:24:17.423Z,99.99
2018-06-02T02:25:17.390Z,99.99
2018-06-02T02:26:17.304Z,99.99
2018-06-02T02:27:17.237Z,99.99
2018-06-02T02:28:17.211Z,99.99
2018-06-02T02:29:17.200Z,99.99
2018-06-02T02:30:17.146Z,99.99
2018-06-02T02:31:17.133Z,99.99
2018-06-02T02:32:17.071Z,99.99
2018-06-02T02:33:17.039Z,99.99
2018-06-02T02:34:17.024Z,99.99
2018-06-02T02:35:16.946Z,99.99
2018-06-02T02:36:16.900Z,99.99
2018-06-02T02:37:16.932Z,99.99
2018-06-02T02:38:27.272Z,99.99
2018-06-02T02:39:16.820Z,99.99
2018-06-02T02:40:16.785Z,99.99
2018-06-02T02:41:16.759Z,99.99
2018-06-02T02:42:16.711Z,99.99
2018-06-02T02:43:16.667Z,99.99
2018-06-02T02:44:16.598Z,99.99
2018-06-02T02:45:16.597Z,99.99
2018-06-02T02:46:16.531Z,99.99
2018-06-02T02:47:16.492Z,99.99
2018-06-02T02:48:16.490Z,99.99
2018-06-02T02:49:16.446Z,99.99
2018-06-02T02:50:16.399Z,99.99
2018-06-02T02:51:16.338Z,99.99
2018-06-02T02:52:16.317Z,99.99
2018-06-02T02:53:16.282Z,99.99
2018-06-02T02:54:16.243Z,99.99
2018-06-02T02:55:16.215Z,99.99
2018-06-02T02:56:16.167Z,99.99
2018-06-02T02:57:16.110Z,99.99
2018-06-02T02:58:16.076Z,99.99
2018-06-02T02:59:16.037Z,99.99
2018-06-02T03:00:16.035Z,99.99
2018-06-02T03:01:15.961Z,99.99
2018-06-02T03:02:24.800Z,99.99
2018-06-02T03:03:15.900Z,99.99
2018-06-02T03:04:15.842Z,99.99
2018-06-02T03:05:15.826Z,99.99
2018-06-02T03:06:15.805Z,99.99
2018-06-02T03:07:15.734Z,99.99
2018-06-02T03:08:15.698Z,99.99
2018-06-02T03:09:15.663Z,99.99
2018-06-02T03:10:15.621Z,99.99
2018-06-02T03:11:15.607Z,99.99
2018-06-02T03:12:15.536Z,99.99
2018-06-02T03:13:15.497Z,99.99
2018-06-02T03:14:15.497Z,99.99
2018-06-02T03:15:15.425Z,99.99
2018-06-02T03:16:15.446Z,99.99
2018-06-02T03:17:15.364Z,99.99
2018-06-02T03:18:15.322Z,99.99
2018-06-02T03:19:15.278Z,99.99
2018-06-02T03:20:15.262Z,99.99
2018-06-02T03:21:15.234Z,99.99
2018-06-02T03:22:15.179Z,99.99
2018-06-02T03:23:15.131Z,99.99
2018-06-02T03:24:15.086Z,99.99
2018-06-02T03:25:15.050Z,99.99
2018-06-02T03:26:15.051Z,99.99
2018-06-02T03:27:14.970Z,99.99
2018-06-02T03:28:14.955Z,99.99
2018-06-02T03:29:14.917Z,99.99
2018-06-02T03:30:14.896Z,99.99
2018-06-02T03:31:14.836Z,99.99
2018-06-02T03:32:14.833Z,99.99
2018-06-02T03:33:14.756Z,99.99
2018-06-02T03:34:14.737Z,99.99
2018-06-02T03:35:14.686Z,99.99
2018-06-02T03:36:14.674Z,99.99
2018-06-02T03:37:14.650Z,99.99
2018-06-02T03:38:14.575Z,99.99
2018-06-02T03:39:14.558Z,99.99
2018-06-02T03:40:14.510Z,99.99
2018-06-02T03:41:14.457Z,99.99
2018-06-02T03:42:14.450Z,99.99
2018-06-02T03:43:14.396Z,99.99
2018-06-02T03:44:14.344Z,99.99
2018-06-02T03:45:14.302Z,99.99
2018-06-02T03:46:14.264Z,99.99
2018-06-02T03:47:14.244Z,99.99
2018-06-02T03:48:25.338Z,99.99
2018-06-02T03:49:14.154Z,99.99
2018-06-02T03:50:14.114Z,99.99
2018-06-02T03:51:14.081Z,99.99
2018-06-02T03:52:14.075Z,99.99
2018-06-02T03:53:14.010Z,99.99
2018-06-02T03:54:13.985Z,99.99
2018-06-02T03:55:13.927Z,99.99
2018-06-02T03:56:13.888Z,99.99
2018-06-02T03:57:13.865Z,99.99
2018-06-02T03:58:13.848Z,99.99
2018-06-02T03:59:13.786Z,99.99
2018-06-02T04:00:13.775Z,99.99
2018-06-02T04:01:13.716Z,99.99
2018-06-02T04:02:13.686Z,99.99
2018-06-02T04:03:13.649Z,99.99
2018-06-02T04:04:13.592Z,99.99
2018-06-02T04:05:13.560Z,99.99
2018-06-02T04:06:13.526Z,99.99
2018-06-02T04:07:13.470Z,99.99
2018-06-02T04:08:13.501Z,99.99
2018-06-02T04:09:13.406Z,99.99
2018-06-02T04:10:13.385Z,99.99
2018-06-02T04:11:13.337Z,99.99
2018-06-02T04:12:23.346Z,99.99
2018-06-02T04:13:13.273Z,99.99
2018-06-02T04:14:13.208Z,99.99
2018-06-02T04:15:13.170Z,99.99
2018-06-02T04:16:13.143Z,99.99
2018-06-02T04:17:13.101Z,99.99
2018-06-02T04:18:13.062Z,99.99
2018-06-02T04:19:13.037Z,99.99
2018-06-02T04:20:12.989Z,99.99
2018-06-02T04:21:12.956Z,99.99
2018-06-02T04:22:12.942Z,99.99
2018-06-02T04:23:12.925Z,99.99
2018-06-02T04:24:12.875Z,99.99
2018-06-02T04:25:12.813Z,99.99
2018-06-02T04:26:12.784Z,99.99
2018-06-02T04:27:12.728Z,99.99
2018-06-02T04:28:12.715Z,99.99
2018-06-02T04:29:12.692Z,99.99
2018-06-02T04:30:12.661Z,99.99
2018-06-02T04:31:12.589Z,99.99
2018-06-02T04:32:12.536Z,99.99
2018-06-02T04:33:12.498Z,99.99
2018-06-02T04:34:12.498Z,99.99
2018-06-02T04:35:22.890Z,99.99
2018-06-02T04:36:12.393Z,99.99
2018-06-02T04:37:12.349Z,99.99
2018-06-02T04:38:12.356Z,99.99
2018-06-02T04:39:12.331Z,99.99
2018-06-02T04:40:12.249Z,99.99
2018-06-02T04:41:12.212Z,99.99
2018-06-02T04:42:12.160Z,99.99
2018-06-02T04:43:12.127Z,99.99
2018-06-02T04:44:12.094Z,99.99
2018-06-02T04:45:12.078Z,99.99
2018-06-02T04:46:12.028Z,99.99
2018-06-02T04:47:12.004Z,99.99
2018-06-02T04:48:11.948Z,99.99
2018-06-02T04:49:11.913Z,99.99
2018-06-02T04:50:11.905Z,99.99
2018-06-02T04:51:11.835Z,99.99
2018-06-02T04:52:11.802Z,99.99
2018-06-02T04:53:11.774Z,99.99
2018-06-02T04:54:11.714Z,99.99
2018-06-02T04:55:11.709Z,99.99
2018-06-02T04:56:11.652Z,99.99
2018-06-02T04:57:11.608Z,99.99
2018-06-02T04:58:22.936Z,99.99
2018-06-02T04:59:11.545Z,99.99
2018-06-02T05:00:11.520Z,99.99
2018-06-02T05:01:11.464Z,99.99
2018-06-02T05:02:11.424Z,99.99
2018-06-02T05:03:11.404Z,99.99
2018-06-02T05:04:11.346Z,99.99
2018-06-02T05:05:11.350Z,99.99
2018-06-02T05:06:11.270Z,99.99
2018-06-02T05:07:11.237Z,99.99
2018-06-02T05:08:11.202Z,99.99
2018-06-02T05:09:11.166Z,99.99
2018-06-02T05:10:11.130Z,99.99
2018-06-02T05:11:11.108Z,99.99
2018-06-02T05:12:11.087Z,99.99
2018-06-02T05:13:11.014Z,99.99
2018-06-02T05:14:10.974Z,99.99
2018-06-02T05:15:10.967Z,99.99
2018-06-02T05:16:10.938Z,99.99
2018-06-02T05:17:10.867Z,99.99
2018-06-02T05:18:10.846Z,99.99
2018-06-02T05:19:10.797Z,99.99
2018-06-02T05:20:10.763Z,99.99
2018-06-02T05:21:10.776Z,99.99
2018-06-02T05:22:20.938Z,99.99
2018-06-02T05:23:10.646Z,99.99
2018-06-02T05:24:10.597Z,99.99
2018-06-02T05:25:10.564Z,99.99
2018-06-02T05:26:10.561Z,99.99
2018-06-02T05:27:10.506Z,99.99
2018-06-02T05:28:10.471Z,99.99
2018-06-02T05:29:10.422Z,99.99
2018-06-02T05:30:10.394Z,99.99
2018-06-02T05:31:10.342Z,99.99
2018-06-02T05:32:10.350Z,99.99
2018-06-02T05:33:10.296Z,99.99
2018-06-02T05:34:10.252Z,99.99
2018-06-02T05:35:10.208Z,99.99
2018-06-02T05:36:10.167Z,99.99
2018-06-02T05:37:10.141Z,99.99
2018-06-02T05:38:10.085Z,99.99
2018-06-02T05:39:10.048Z,99.99
2018-06-02T05:40:10.019Z,99.99
2018-06-02T05:41:09.984Z,99.99
2018-06-02T05:42:09.965Z,99.99
2018-06-02T05:43:09.907Z,99.99
2018-06-02T05:44:09.891Z,99.99
2018-06-02T05:45:09.830Z,99.99
2018-06-02T05:46:09.796Z,99.99
2018-06-02T05:47:09.794Z,99.99
2018-06-02T05:48:09.720Z,99.99
2018-06-02T05:49:09.704Z,99.99
2018-06-02T05:50:09.648Z,99.99
2018-06-02T05:51:09.632Z,99.99
2018-06-02T05:52:09.607Z,99.99
2018-06-02T05:53:09.555Z,99.99
2018-06-02T05:54:09.502Z,99.99
2018-06-02T05:55:09.452Z,99.99
2018-06-02T05:56:09.420Z,99.99
2018-06-02T05:57:09.423Z,99.99
2018-06-02T05:58:09.355Z,99.99
2018-06-02T05:59:09.305Z,99.99
2018-06-02T06:00:09.272Z,99.99
2018-06-02T06:01:09.269Z,99.99
2018-06-02T06:02:09.226Z,99.99
2018-06-02T06:03:20.477Z,99.99
2018-06-02T06:04:09.143Z,99.99
2018-06-02T06:05:09.077Z,99.99
2018-06-02T06:06:09.047Z,99.99
2018-06-02T06:07:09.005Z,99.99
2018-06-02T06:08:09.022Z,99.99
2018-06-02T06:09:08.943Z,99.99
2018-06-02T06:10:08.896Z,99.99
2018-06-02T06:11:08.880Z,99.99
2018-06-02T06:12:08.827Z,99.99
2018-06-02T06:13:08.807Z,99.99
2018-06-02T06:14:08.751Z,99.99
2018-06-02T06:15:08.712Z,99.99
2018-06-02T06:16:08.683Z,99.99
2018-06-02T06:17:08.647Z,99.99
2018-06-02T06:18:08.668Z,99.99
2018-06-02T06:19:08.573Z,99.99
2018-06-02T06:20:08.539Z,99.99
2018-06-02T06:21:08.503Z,99.99
2018-06-02T06:22:08.482Z,99.99
2018-06-02T06:23:08.439Z,99.99
2018-06-02T06:24:08.418Z,99.99
2018-06-02T06:25:08.352Z,99.99
2018-06-02T06:26:08.306Z,99.99
2018-06-02T06:27:08.281Z,99.99
2018-06-02T06:28:08.258Z,99.99
2018-06-02T06:29:08.253Z,99.99
2018-06-02T06:30:08.204Z,99.99
2018-06-02T06:31:08.130Z,99.99
2018-06-02T06:32:08.095Z,99.99
2018-06-02T06:33:08.120Z,99.99
2018-06-02T06:34:08.043Z,99.99
2018-06-02T06:35:08.003Z,99.99
2018-06-02T06:36:07.936Z,99.99
2018-06-02T06:37:07.928Z,99.99
2018-06-02T06:38:07.882Z,99.99
2018-06-02T06:39:07.910Z,99.99
2018-06-02T06:40:07.858Z,99.99
2018-06-02T06:41:07.795Z,99.99
2018-06-02T06:42:07.737Z,99.99
2018-06-02T06:43:07.695Z,99.99
2018-06-02T06:44:07.699Z,99.99
2018-06-02T06:45:07.619Z,99.99
2018-06-02T06:46:07.569Z,99.99
2018-06-02T06:47:07.532Z,99.99
2018-06-02T06:48:07.527Z,99.99
2018-06-02T06:49:07.494Z,99.99
2018-06-02T06:50:07.457Z,99.99
2018-06-02T06:51:07.406Z,99.99
2018-06-02T06:52:07.372Z,99.99
2018-06-02T06:53:07.365Z,99.99
2018-06-02T06:54:07.319Z,99.99
2018-06-02T06:55:07.286Z,99.99
2018-06-02T06:56:07.205Z,99.99
2018-06-02T06:57:07.209Z,99.99
2018-06-02T06:58:07.148Z,99.99
2018-06-02T06:59:07.121Z,99.99
2018-06-02T07:00:07.121Z,99.99
2018-06-02T07:01:07.037Z,99.99
2018-06-02T07:02:07.001Z,99.99
2018-06-02T07:03:18.008Z,99.99
2018-06-02T07:04:06.956Z,99.99
2018-06-02T07:05:06.910Z,99.99
2018-06-02T07:06:06.848Z,99.99
2018-06-02T07:07:06.869Z,99.99
2018-06-02T07:08:06.814Z,99.99
2018-06-02T07:09:06.732Z,99.99
2018-06-02T07:10:06.748Z,99.99
2018-06-02T07:11:06.697Z,99.99
2018-06-02T07:12:06.643Z,99.99
2018-06-02T07:13:06.608Z,99.99
2018-06-02T07:14:06.558Z,99.99
2018-06-02T07:15:06.512Z,99.99
2018-06-02T07:16:06.491Z,99.99
2018-06-02T07:17:06.461Z,99.99
2018-06-02T07:18:06.404Z,99.99
2018-06-02T07:19:06.379Z,99.99
2018-06-02T07:20:06.343Z,99.99
2018-06-02T07:21:06.334Z,99.99
2018-06-02T07:22:06.274Z,99.99
2018-06-02T07:23:06.230Z,99.99
2018-06-02T07:24:06.190Z,99.99
2018-06-02T07:25:06.179Z,99.99
2018-06-02T07:26:06.216Z,99.99
2018-06-02T07:27:06.073Z,99.99
2018-06-02T07:28:06.054Z,99.99
2018-06-02T07:29:06.053Z,99.99
2018-06-02T07:30:05.975Z,99.99
2018-06-02T07:31:06.006Z,99.99
2018-06-02T07:32:05.914Z,99.99
2018-06-02T07:33:05.874Z,99.99
2018-06-02T07:34:05.812Z,99.99
2018-06-02T07:35:05.832Z,99.99
2018-06-02T07:36:05.784Z,99.99
2018-06-02T07:37:05.750Z,99.99
2018-06-02T07:38:05.674Z,99.99
2018-06-02T07:39:05.634Z,99.99
2018-06-02T07:40:05.588Z,99.99
2018-06-02T07:41:05.610Z,99.99
2018-06-02T07:42:05.589Z,99.99
2018-06-02T07:43:05.484Z,99.99
2018-06-02T07:44:05.454Z,99.99
2018-06-02T07:45:05.429Z,99.99
2018-06-02T07:46:05.388Z,99.99
2018-06-02T07:47:05.373Z,99.99
2018-06-02T07:48:05.341Z,99.99
2018-06-02T07:49:05.276Z,99.99
2018-06-02T07:50:05.297Z,99.99
2018-06-02T07:51:05.205Z,99.99
2018-06-02T07:52:05.180Z,99.99
2018-06-02T07:53:05.143Z,99.99
2018-06-02T07:54:05.132Z,99.99
2018-06-02T07:55:05.057Z,99.99
2018-06-02T07:56:05.029Z,99.99
2018-06-02T07:57:05.030Z,99.99
2018-06-02T07:58:04.950Z,99.99
2018-06-02T07:59:04.899Z,99.99
2018-06-02T08:00:04.876Z,99.99
2018-06-02T08:01:04.850Z,99.99
2018-06-02T08:02:04.793Z,99.99
2018-06-02T08:03:04.785Z,99.99
2018-06-02T08:04:04.735Z,99.99
2018-06-02T08:05:04.687Z,99.99
2018-06-02T08:06:04.678Z,99.99
2018-06-02T08:07:04.658Z,99.99
2018-06-02T08:08:04.610Z,99.99
2018-06-02T08:09:04.556Z,99.99
2018-06-02T08:10:04.506Z,99.99
2018-06-02T08:11:04.479Z,99.99
2018-06-02T08:12:04.454Z,99.99
2018-06-02T08:13:04.455Z,99.99
2018-06-02T08:14:04.367Z,99.99
2018-06-02T08:15:04.316Z,99.99
2018-06-02T08:16:04.288Z,99.99
2018-06-02T08:17:04.264Z,99.99
2018-06-02T08:18:04.316Z,99.99
2018-06-02T08:19:04.201Z,99.99
2018-06-02T08:20:04.154Z,99.99
2018-06-02T08:21:04.115Z,99.99
2018-06-02T08:22:04.072Z,99.99
2018-06-02T08:23:14.618Z,99.99
2018-06-02T08:24:03.991Z,99.99
2018-06-02T08:25:03.964Z,99.99
2018-06-02T08:26:04.477Z,99.99
2018-06-02T08:27:03.892Z,99.99
2018-06-02T08:28:03.874Z,99.99
2018-06-02T08:29:03.842Z,99.99
2018-06-02T08:30:03.778Z,99.99
2018-06-02T08:31:03.744Z,99.99
2018-06-02T08:32:03.702Z,99.99
2018-06-02T08:33:03.666Z,99.99
2018-06-02T08:34:03.655Z,99.99
2018-06-02T08:35:03.593Z,99.99
2018-06-02T08:36:03.558Z,99.99
2018-06-02T08:37:03.526Z,99.99
2018-06-02T08:38:03.484Z,99.99
2018-06-02T08:39:03.477Z,99.99
2018-06-02T08:40:03.427Z,99.99
2018-06-02T08:41:14.897Z,99.99
2018-06-02T08:42:03.411Z,99.99
2018-06-02T08:43:03.305Z,99.99
2018-06-02T08:44:03.697Z,99.99
2018-06-02T08:45:03.230Z,99.99
2018-06-02T08:46:03.202Z,99.99
2018-06-02T08:47:03.166Z,99.99
2018-06-02T08:48:03.123Z,99.99
2018-06-02T08:49:03.100Z,99.99
2018-06-02T08:50:03.073Z,99.99
2018-06-02T08:51:03.010Z,99.99
2018-06-02T08:52:02.987Z,99.99
2018-06-02T08:53:02.986Z,99.99
2018-06-02T08:54:02.906Z,99.99
2018-06-02T08:55:02.894Z,99.99
2018-06-02T08:56:02.841Z,99.99
2018-06-02T08:57:02.853Z,99.99
2018-06-02T08:58:02.788Z,99.99
2018-06-02T08:59:02.738Z,99.99
2018-06-02T09:00:02.730Z,99.99
2018-06-02T09:01:02.669Z,99.99
2018-06-02T09:02:02.631Z,99.99
2018-06-02T09:03:02.593Z,99.99
2018-06-02T09:04:02.556Z,99.99
2018-06-02T09:05:02.546Z,99.99
2018-06-02T09:06:02.490Z,99.99
2018-06-02T09:07:02.463Z,99.99
2018-06-02T09:08:02.409Z,99.99
2018-06-02T09:09:02.372Z,99.99
2018-06-02T09:10:02.382Z,99.99
2018-06-02T09:11:02.312Z,99.99
2018-06-02T09:12:02.305Z,99.99
2018-06-02T09:13:02.242Z,99.99
2018-06-02T09:14:02.213Z,99.99
2018-06-02T09:15:02.162Z,99.99
2018-06-02T09:16:02.147Z,99.99
2018-06-02T09:17:02.093Z,99.99
2018-06-02T09:18:02.066Z,99.99
2018-06-02T09:19:02.029Z,99.99
2018-06-02T09:20:01.999Z,99.99
2018-06-02T09:21:11.753Z,99.99
2018-06-02T09:22:01.938Z,99.99
2018-06-02T09:23:01.978Z,99.99
2018-06-02T09:24:01.861Z,99.99
2018-06-02T09:25:01.884Z,99.99
2018-06-02T09:26:01.813Z,99.99
2018-06-02T09:27:01.739Z,99.99
2018-06-02T09:28:01.718Z,99.99
2018-06-02T09:29:01.675Z,99.99
2018-06-02T09:30:01.639Z,99.99
2018-06-02T09:31:01.638Z,99.99
2018-06-02T09:32:01.570Z,99.99
2018-06-02T09:33:01.537Z,99.99
2018-06-02T09:34:01.496Z,99.99
2018-06-02T09:35:01.485Z,99.99
2018-06-02T09:36:01.448Z,99.99
2018-06-02T09:37:01.437Z,99.99
2018-06-02T09:38:01.354Z,99.99
2018-06-02T09:39:01.321Z,99.99
2018-06-02T09:40:01.297Z,99.99
2018-06-02T09:41:01.260Z,99.99
2018-06-02T09:42:11.544Z,99.99
2018-06-02T09:43:01.191Z,99.99
2018-06-02T09:44:01.142Z,99.99
2018-06-02T09:45:01.107Z,99.99
2018-06-02T09:46:01.098Z,99.99
2018-06-02T09:47:01.105Z,99.99
2018-06-02T09:48:01.020Z,99.99
2018-06-02T09:49:00.982Z,99.99
2018-06-02T09:50:00.973Z,99.99
2018-06-02T09:51:00.921Z,99.98
2018-06-02T09:52:00.909Z,98.25
2018-06-02T09:53:00.842Z,99.84
2018-06-02T09:54:00.822Z,96.56
2018-06-02T09:55:00.783Z,96.17
2018-06-02T09:56:00.738Z,97.04
2018-06-02T09:57:00.756Z,97.19
2018-06-02T09:58:00.677Z,98.73
2018-06-02T09:59:00.650Z,97.72
2018-06-02T10:00:00.617Z,96.84
2018-06-02T10:01:00.585Z,96.46
2018-06-02T10:02:10.237Z,96.36
2018-06-02T10:03:00.573Z,95.93
2018-06-02T10:04:00.479Z,96.84
2018-06-02T10:05:00.480Z,97.52
2018-06-02T10:06:00.404Z,96.46
2018-06-02T10:07:00.363Z,96.66
2018-06-02T10:08:00.376Z,96.08
2018-06-02T10:09:00.308Z,98.29
2018-06-02T10:10:00.274Z,98.68
2018-06-02T10:11:00.245Z,97.86
2018-06-02T10:12:00.220Z,96.89
2018-06-02T10:13:00.227Z,97.86
2018-06-02T10:14:00.146Z,98.63
2018-06-02T10:15:00.119Z,98.58
2018-06-02T10:16:00.097Z,98.97
2018-06-02T10:17:00.052Z,99.30
2018-06-02T10:18:00.061Z,99.99
2018-06-02T10:18:59.995Z,99.99
2018-06-02T10:19:59.935Z,99.88
2018-06-02T10:20:59.915Z,99.69
2018-06-02T10:21:59.909Z,99.99
2018-06-02T10:22:59.913Z,99.30
2018-06-02T10:23:59.815Z,99.99
2018-06-02T10:24:59.810Z,99.55
2018-06-02T10:25:59.742Z,99.99
2018-06-02T10:26:59.740Z,99.07
2018-06-02T10:27:59.705Z,99.55
2018-06-02T10:28:59.645Z,99.26
2018-06-02T10:29:59.746Z,97.91
2018-06-02T10:30:59.581Z,98.39
2018-06-02T10:31:59.546Z,98.97
2018-06-02T10:32:59.528Z,99.84
2018-06-02T10:33:59.497Z,97.24
2018-06-02T10:34:59.441Z,98.58
2018-06-02T10:35:59.416Z,97.76
2018-06-02T10:36:59.379Z,99.21
2018-06-02T10:37:59.328Z,99.21
2018-06-02T10:38:59.337Z,99.79
2018-06-02T10:39:59.311Z,99.59
2018-06-02T10:41:11.072Z,99.30
2018-06-02T10:41:59.430Z,98.44
2018-06-02T10:43:00.319Z,99.69
2018-06-02T10:43:59.632Z,99.35
2018-06-02T10:44:59.102Z,99.40
2018-06-02T10:45:59.274Z,98.54
2018-06-02T10:46:59.035Z,98.05
2018-06-02T10:47:59.002Z,98.58
2018-06-02T10:48:58.994Z,97.86
2018-06-02T10:49:58.935Z,96.32
2018-06-02T10:50:58.905Z,96.46
2018-06-02T10:51:58.866Z,94.82
2018-06-02T10:52:58.842Z,94.43
2018-06-02T10:53:58.803Z,94.10
2018-06-02T10:54:58.800Z,94.87
2018-06-02T10:55:58.728Z,94.00
2018-06-02T10:56:58.686Z,92.65
2018-06-02T10:57:58.654Z,93.18
2018-06-02T10:58:58.628Z,91.78
2018-06-02T10:59:58.614Z,90.91
2018-06-02T11:00:58.557Z,93.04
2018-06-02T11:01:58.528Z,91.30
2018-06-02T11:02:58.482Z,92.50
2018-06-02T11:03:58.469Z,93.66
2018-06-02T11:04:58.445Z,91.30
2018-06-02T11:05:58.390Z,91.68
2018-06-02T11:06:58.500Z,90.53
2018-06-02T11:07:58.323Z,91.78
2018-06-02T11:08:58.339Z,91.54
2018-06-02T11:09:58.306Z,91.93
2018-06-02T11:10:58.237Z,93.28
2018-06-02T11:11:58.247Z,93.91
2018-06-02T11:12:58.184Z,93.91
2018-06-02T11:13:58.136Z,95.54
2018-06-02T11:14:58.095Z,96.32
2018-06-02T11:15:58.101Z,95.54
2018-06-02T11:16:58.061Z,94.48
2018-06-02T11:17:58.007Z,94.68
2018-06-02T11:18:57.986Z,94.87
2018-06-02T11:19:57.941Z,95.74
2018-06-02T11:20:57.940Z,96.75
2018-06-02T11:21:57.894Z,94.78
2018-06-02T11:22:57.825Z,94.73
2018-06-02T11:23:57.816Z,93.76
2018-06-02T11:24:57.781Z,93.47
2018-06-02T11:25:57.763Z,92.41
2018-06-02T11:26:57.705Z,93.28
2018-06-02T11:27:57.659Z,91.93
2018-06-02T11:28:57.635Z,92.12
2018-06-02T11:29:57.608Z,92.74
2018-06-02T11:30:57.594Z,92.74
2018-06-02T11:31:57.553Z,93.04
2018-06-02T11:32:57.499Z,92.32
2018-06-02T11:33:57.465Z,93.37
2018-06-02T11:34:57.453Z,93.85
2018-06-02T11:35:57.436Z,94.05
2018-06-02T11:36:57.377Z,95.01
2018-06-02T11:37:57.341Z,94.00
2018-06-02T11:38:57.303Z,93.52
2018-06-02T11:39:57.265Z,94.78
2018-06-02T11:40:57.251Z,94.00
2018-06-02T11:41:57.254Z,94.24
2018-06-02T11:42:57.170Z,93.76
2018-06-02T11:43:57.154Z,93.91
2018-06-02T11:44:57.113Z,94.20
2018-06-02T11:45:57.115Z,93.47
2018-06-02T11:46:57.069Z,91.93
2018-06-02T11:47:57.031Z,93.47
2018-06-02T11:48:56.965Z,93.80
2018-06-02T11:49:56.944Z,91.97
2018-06-02T11:50:56.920Z,89.75
2018-06-02T11:51:56.921Z,91.30
2018-06-02T11:52:56.843Z,91.15
2018-06-02T11:53:56.821Z,91.05
2018-06-02T11:54:56.787Z,90.09
2018-06-02T11:55:56.743Z,90.23
2018-06-02T11:56:56.735Z,89.12
2018-06-02T11:57:57.006Z,89.84
2018-06-02T11:58:56.646Z,86.75
2018-06-02T11:59:56.636Z,88.05
2018-06-02T12:01:07.530Z,87.81
2018-06-02T12:01:57.267Z,84.90
2018-06-02T12:02:56.571Z,87.51
2018-06-02T12:03:56.485Z,86.30
2018-06-02T12:04:56.445Z,86.40
2018-06-02T12:05:56.406Z,88.71
2018-06-02T12:06:56.412Z,84.84
2018-06-02T12:07:56.390Z,84.09
2018-06-02T12:08:56.340Z,86.69
2018-06-02T12:09:56.288Z,84.72
2018-06-02T12:10:56.254Z,87.95
2018-06-02T12:11:56.237Z,87.27
2018-06-02T12:12:56.247Z,88.01
2018-06-02T12:13:56.232Z,85.15
2018-06-02T12:14:56.171Z,83.31
2018-06-02T12:15:56.108Z,84.57
2018-06-02T12:16:56.086Z,84.09
2018-06-02T12:17:56.070Z,84.71
2018-06-02T12:18:56.017Z,86.40
2018-06-02T12:20:06.700Z,87.07
2018-06-02T12:21:07.812Z,86.40
2018-06-02T12:21:56.006Z,85.82
2018-06-02T12:22:56.118Z,86.01
2018-06-02T12:23:56.965Z,85.86
2018-06-02T12:24:55.832Z,80.30
2018-06-02T12:25:55.794Z,86.05
2018-06-02T12:26:55.766Z,82.28
2018-06-02T12:27:55.749Z,81.89
2018-06-02T12:28:55.768Z,82.37
2018-06-02T12:29:55.703Z,81.56
2018-06-02T12:30:55.681Z,79.52
2018-06-02T12:31:55.654Z,79.43
2018-06-02T12:32:55.671Z,80.98
2018-06-02T12:33:55.616Z,81.27
2018-06-02T12:34:55.600Z,82.78
2018-06-02T12:35:55.573Z,85.39
2018-06-02T12:36:55.508Z,82.00
2018-06-02T12:37:55.490Z,83.12
2018-06-02T12:38:55.467Z,80.99
2018-06-02T12:40:06.096Z,82.68
2018-06-02T12:40:55.419Z,80.71
2018-06-02T12:41:55.463Z,81.77
2018-06-02T12:42:55.327Z,82.11
2018-06-02T12:43:55.333Z,82.50
2018-06-02T12:44:55.276Z,82.98
2018-06-02T12:45:55.240Z,83.75
2018-06-02T12:46:55.243Z,84.24
2018-06-02T12:47:55.198Z,84.72
2018-06-02T12:48:55.175Z,83.85
2018-06-02T12:49:55.120Z,83.85
2018-06-02T12:50:55.094Z,86.27
2018-06-02T12:51:55.049Z,85.01